Time;durP1;ratioP1;P1;durP2;ratioP2;P2;SDS_P1;SDS_P2;PMS_P1;PMS_P2;Temp;Humidity;BMP_temperature;BMP_pressure;BME280_temperature;BME280_humidity;BME280_pressure;Samples;Min_cycle;Max_cycle;Signal;HPM_P1;HPM_P2
2024/02/10 00:01:17;;;;;;;4.83;3.87;;;10.60;99.90;10.60;98094.00;;;;4970894;28;84556;-71
2024/02/10 00:03:45;;;;;;;4.80;3.57;;;10.60;99.90;10.60;98096.00;;;;4970823;28;82817;-72
2024/02/10 00:06:15;;;;;;;5.77;3.90;;;10.70;99.90;10.60;98085.00;;;;4969814;28;82755;-71
2024/02/10 00:08:44;;;;;;;3.63;3.20;;;10.70;99.90;10.60;98091.00;;;;4965078;28;83081;-71
2024/02/10 00:11:10;;;;;;;8.37;3.70;;;10.70;99.90;10.60;98098.00;;;;4971267;28;83544;-71
2024/02/10 00:13:39;;;;;;;4.47;2.73;;;10.60;99.90;10.60;98093.00;;;;4971566;28;82568;-71
2024/02/10 00:16:05;;;;;;;4.10;2.50;;;10.60;99.90;10.60;98089.00;;;;4967478;28;82726;-71
2024/02/10 00:18:31;;;;;;;6.07;3.77;;;10.70;99.90;10.60;98089.00;;;;4969629;28;91543;-71
2024/02/10 00:20:57;;;;;;;4.20;3.37;;;10.80;99.90;10.60;98085.00;;;;4969589;28;84180;-71
2024/02/10 00:23:24;;;;;;;5.53;3.63;;;10.70;99.90;10.60;98095.00;;;;4970647;28;85089;-71
2024/02/10 00:25:52;;;;;;;6.60;2.67;;;10.60;99.90;10.60;98087.00;;;;4969381;28;83119;-71
2024/02/10 00:28:19;;;;;;;4.47;3.17;;;10.70;99.90;10.60;98087.00;;;;4969713;28;82959;-71
2024/02/10 00:30:45;;;;;;;3.87;2.63;;;10.70;99.90;10.60;98088.00;;;;4974190;28;82758;-71
2024/02/10 00:33:10;;;;;;;5.07;2.83;;;10.70;99.90;10.60;98089.00;;;;4973712;28;112964;-71
2024/02/10 00:35:36;;;;;;;2.60;2.37;;;10.60;99.90;10.60;98096.00;;;;4975993;28;109656;-71
2024/02/10 00:38:03;;;;;;;4.40;3.70;;;10.70;99.90;10.60;98082.00;;;;4973117;28;82264;-71
2024/02/10 00:40:31;;;;;;;4.27;3.33;;;10.70;99.90;10.60;98091.00;;;;4972724;28;83918;-71
2024/02/10 00:42:57;;;;;;;6.17;3.43;;;10.70;99.90;10.60;98090.00;;;;4973020;28;83779;-71
2024/02/10 00:45:23;;;;;;;4.77;2.83;;;10.70;99.90;10.60;98092.00;;;;4967084;28;104100;-71
2024/02/10 00:47:52;;;;;;;4.50;3.10;;;10.60;99.90;10.60;98092.00;;;;4971620;28;108938;-71
2024/02/10 00:50:18;;;;;;;5.23;2.43;;;10.70;99.90;10.60;98089.00;;;;4965345;28;84537;-71
2024/02/10 00:52:49;;;;;;;3.80;2.70;;;10.70;99.90;10.60;98092.00;;;;4971743;28;84040;-71
2024/02/10 00:55:16;;;;;;;5.60;2.50;;;10.70;99.90;10.70;98092.00;;;;4968790;28;83478;-71
2024/02/10 00:57:42;;;;;;;2.70;2.23;;;10.70;99.90;10.70;98087.00;;;;4973838;28;82849;-71
2024/02/10 01:00:16;;;;;;;5.00;2.57;;;10.70;99.90;10.70;98090.00;;;;4966348;28;84060;-71
2024/02/10 01:02:45;;;;;;;3.07;2.13;;;10.80;99.90;10.70;98095.00;;;;4967241;28;83743;-72
2024/02/10 01:05:12;;;;;;;3.13;2.40;;;10.70;99.90;10.70;98097.00;;;;4971184;28;83255;-71
2024/02/10 01:07:39;;;;;;;4.00;2.57;;;10.70;99.90;10.70;98092.00;;;;4971450;28;82833;-71
2024/02/10 01:10:09;;;;;;;5.97;2.83;;;10.80;99.90;10.70;98099.00;;;;4970414;28;84470;-71
2024/02/10 01:12:34;;;;;;;4.73;2.67;;;10.80;99.90;10.70;98092.00;;;;4965661;28;84081;-71
2024/02/10 01:15:00;;;;;;;3.97;2.97;;;10.80;99.90;10.70;98094.00;;;;4974246;28;82862;-71
2024/02/10 01:17:26;;;;;;;2.77;2.23;;;10.70;99.90;10.70;98096.00;;;;4971209;28;107768;-71
2024/02/10 01:19:51;;;;;;;2.47;2.00;;;10.70;99.90;10.70;98092.00;;;;4976033;28;83838;-71
2024/02/10 01:22:29;;;;;;;4.00;2.20;;;10.70;99.90;10.70;98091.00;;;;4975019;28;99075;-71
2024/02/10 01:24:55;;;;;;;2.77;2.33;;;10.80;99.90;10.70;98102.00;;;;4973441;28;83595;-72
2024/02/10 01:27:26;;;;;;;3.10;2.07;;;10.70;99.90;10.70;98092.00;;;;4967373;28;82331;-71
2024/02/10 01:29:55;;;;;;;3.57;2.67;;;10.70;99.90;10.70;98089.00;;;;4971410;28;83133;-71
2024/02/10 01:32:20;;;;;;;2.40;2.00;;;10.70;99.90;10.60;98105.00;;;;4968792;28;82932;-71
2024/02/10 01:34:53;;;;;;;3.50;2.07;;;10.70;99.90;10.60;98096.00;;;;4968301;28;111162;-71
2024/02/10 01:37:20;;;;;;;2.07;1.60;;;10.70;99.90;10.60;98100.00;;;;4969852;28;82907;-71
2024/02/10 01:39:47;;;;;;;3.13;2.23;;;10.70;99.90;10.60;98101.00;;;;4970957;28;82862;-71
2024/02/10 01:42:19;;;;;;;4.03;2.37;;;10.60;99.90;10.50;98095.00;;;;4971265;28;83402;-71
2024/02/10 01:44:45;;;;;;;2.00;1.87;;;10.60;99.90;10.50;98099.00;;;;4955338;28;103237;-71
2024/02/10 01:47:15;;;;;;;5.37;2.73;;;10.60;99.90;10.50;98097.00;;;;4966040;28;96642;-71
2024/02/10 01:49:44;;;;;;;3.40;2.27;;;10.50;99.90;10.50;98096.00;;;;4969244;28;92273;-71
2024/02/10 01:52:11;;;;;;;1.90;1.67;;;10.50;99.90;10.40;98095.00;;;;4971085;28;111654;-71
2024/02/10 01:54:39;;;;;;;4.33;2.47;;;10.50;99.90;10.40;98090.00;;;;4968005;28;82725;-70
2024/02/10 01:57:07;;;;;;;2.20;1.60;;;10.50;99.90;10.40;98094.00;;;;4968202;28;82896;-70
2024/02/10 01:59:36;;;;;;;3.23;2.10;;;10.50;99.90;10.40;98090.00;;;;4969213;28;102326;-69
2024/02/10 02:02:03;;;;;;;4.67;2.10;;;10.50;99.90;10.30;98104.00;;;;4968809;28;84785;-69
2024/02/10 02:04:36;;;;;;;2.77;2.27;;;10.40;99.90;10.30;98098.00;;;;4968558;28;83083;-69
2024/02/10 02:07:11;;;;;;;5.63;2.13;;;10.40;99.90;10.30;98109.00;;;;4975798;28;82660;-69
2024/02/10 02:09:39;;;;;;;2.73;2.03;;;10.40;99.90;10.30;98093.00;;;;4973328;28;82792;-69
2024/02/10 02:12:08;;;;;;;5.17;2.17;;;10.40;99.90;10.30;98093.00;;;;4970109;28;112599;-70
2024/02/10 02:14:37;;;;;;;5.50;2.10;;;10.30;99.90;10.30;98101.00;;;;4966902;28;85874;-70
2024/02/10 02:17:04;;;;;;;4.20;1.90;;;10.40;99.90;10.20;98095.00;;;;4970056;28;108374;-70
2024/02/10 02:19:32;;;;;;;3.40;2.27;;;10.30;99.90;10.20;98097.00;;;;4966484;28;83993;-70
2024/02/10 02:22:02;;;;;;;3.13;1.50;;;10.30;99.90;10.20;98094.00;;;;4970179;28;83897;-70
2024/02/10 02:24:29;;;;;;;2.40;2.07;;;10.30;99.90;10.20;98094.00;;;;4968138;28;83779;-70
2024/02/10 02:26:56;;;;;;;3.70;2.37;;;10.30;99.90;10.20;98098.00;;;;4956309;28;83012;-71
2024/02/10 02:29:22;;;;;;;2.13;1.90;;;10.30;99.90;10.20;98091.00;;;;4968366;28;82688;-69
2024/02/10 02:31:48;;;;;;;2.77;2.53;;;10.30;99.90;10.20;98094.00;;;;4968642;28;82924;-69
2024/02/10 02:34:14;;;;;;;3.40;2.23;;;10.30;99.90;10.10;98092.00;;;;4967737;28;84636;-70
2024/02/10 02:36:41;;;;;;;2.27;1.83;;;10.20;99.90;10.10;98094.00;;;;4958910;28;107464;-69
2024/02/10 02:39:08;;;;;;;3.33;2.30;;;10.20;99.90;10.10;98087.00;;;;4969647;28;82766;-70
2024/02/10 02:41:33;;;;;;;1.83;1.70;;;10.20;99.90;10.10;98094.00;;;;4975366;28;82676;-70
2024/02/10 02:43:59;;;;;;;4.30;2.70;;;10.20;99.90;10.10;98085.00;;;;4974177;28;110887;-70
2024/02/10 02:46:25;;;;;;;4.23;2.60;;;10.20;99.90;10.10;98092.00;;;;4972338;28;110017;-70
2024/02/10 02:48:57;;;;;;;3.47;2.23;;;10.20;99.90;10.10;98095.00;;;;4965736;28;111926;-70
2024/02/10 02:51:23;;;;;;;3.10;1.93;;;10.20;99.90;10.10;98085.00;;;;4971616;28;101635;-70
2024/02/10 02:53:48;;;;;;;2.70;2.10;;;10.20;99.90;10.10;98085.00;;;;4969383;28;110403;-71
2024/02/10 02:56:18;;;;;;;5.47;2.83;;;10.10;99.90;10.10;98080.00;;;;4973102;28;95672;-70
2024/02/10 02:58:46;;;;;;;6.90;2.57;;;10.20;99.90;10.10;98080.00;;;;4972703;28;84539;-70
2024/02/10 03:01:12;;;;;;;3.40;2.30;;;10.20;99.90;10.00;98078.00;;;;4974251;28;83846;-70
2024/02/10 03:03:39;;;;;;;2.30;2.10;;;10.10;99.90;10.00;98072.00;;;;4975848;28;83020;-71
2024/02/10 03:06:05;;;;;;;2.27;2.07;;;10.20;99.90;10.00;98073.00;;;;4973781;28;82126;-70
2024/02/10 03:08:31;;;;;;;5.53;2.80;;;10.10;99.90;10.00;98069.00;;;;4974169;28;82626;-70
2024/02/10 03:10:56;;;;;;;2.50;2.17;;;10.10;99.90;10.00;98072.00;;;;4970713;28;111617;-71
2024/02/10 03:13:24;;;;;;;2.87;1.60;;;10.00;99.90;10.00;98073.00;;;;4966999;28;83742;-70
2024/02/10 03:15:50;;;;;;;2.57;2.23;;;10.10;99.90;10.00;98083.00;;;;4968603;28;82934;-70
2024/02/10 03:18:18;;;;;;;3.50;2.57;;;10.10;99.90;10.00;98075.00;;;;4972885;28;83466;-71
2024/02/10 03:20:44;;;;;;;1.87;1.70;;;10.10;99.90;10.00;98073.00;;;;4973920;28;82980;-70
2024/02/10 03:23:13;;;;;;;3.23;2.00;;;10.00;99.90;10.00;98072.00;;;;4970104;28;82736;-71
2024/02/10 03:25:42;;;;;;;2.40;1.87;;;10.00;99.90;9.90;98082.00;;;;4953466;28;82908;-71
2024/02/10 03:28:07;;;;;;;2.03;1.83;;;10.10;99.90;9.90;98080.00;;;;4972621;28;83784;-71
2024/02/10 03:30:33;;;;;;;2.63;1.97;;;10.00;99.90;9.90;98073.00;;;;4968896;28;82567;-71
2024/02/10 03:33:01;;;;;;;4.93;2.07;;;10.00;99.90;9.90;98079.00;;;;4969636;28;82765;-71
2024/02/10 03:35:27;;;;;;;2.80;1.93;;;10.00;99.90;9.80;98075.00;;;;4972261;28;82792;-71
2024/02/10 03:37:52;;;;;;;1.97;1.60;;;10.00;99.90;9.80;98071.00;;;;4969828;28;83669;-71
2024/02/10 03:40:18;;;;;;;3.60;2.23;;;9.90;99.90;9.80;98075.00;;;;4969703;28;113809;-70
2024/02/10 03:42:45;;;;;;;2.23;1.70;;;9.90;99.90;9.70;98069.00;;;;4970156;28;110518;-71
2024/02/10 03:45:14;;;;;;;2.40;1.60;;;9.80;99.90;9.70;98075.00;;;;4971771;28;83114;-70
2024/02/10 03:47:43;;;;;;;3.07;2.30;;;9.80;99.90;9.70;98064.00;;;;4971074;28;83751;-71
2024/02/10 03:50:14;;;;;;;3.87;2.23;;;9.70;99.90;9.70;98052.00;;;;4969827;28;84661;-70
2024/02/10 03:52:40;;;;;;;1.73;1.37;;;9.80;99.90;9.60;98056.00;;;;4968869;28;110330;-72
2024/02/10 03:55:08;;;;;;;2.47;1.73;;;9.70;99.90;9.60;98058.00;;;;4972139;28;81984;-72
2024/02/10 03:57:35;;;;;;;2.03;1.70;;;9.70;99.90;9.60;98051.00;;;;4971678;28;83183;-72
2024/02/10 04:00:05;;;;;;;1.77;1.67;;;9.60;99.90;9.60;98051.00;;;;4977165;28;83980;-72
2024/02/10 04:02:33;;;;;;;2.70;1.90;;;9.70;99.90;9.50;98057.00;;;;4968273;28;85482;-72
2024/02/10 04:04:59;;;;;;;3.73;1.50;;;9.70;99.90;9.50;98049.00;;;;4972685;27;82759;-72
2024/02/10 04:07:26;;;;;;;1.70;1.20;;;9.60;99.90;9.50;98048.00;;;;4969041;28;115399;-72
2024/02/10 04:09:52;;;;;;;6.63;1.77;;;9.60;99.90;9.50;98056.00;;;;4973393;28;82865;-72
2024/02/10 04:12:18;;;;;;;2.70;1.20;;;9.60;99.90;9.50;98052.00;;;;4967434;28;110769;-72
2024/02/10 04:14:44;;;;;;;2.67;1.80;;;9.60;99.90;9.60;98045.00;;;;4968641;28;109892;-72
2024/02/10 04:17:09;;;;;;;1.47;1.27;;;9.60;99.90;9.60;98043.00;;;;4970318;28;83215;-72
2024/02/10 04:19:38;;;;;;;2.70;2.00;;;9.70;99.90;9.60;98042.00;;;;4969670;28;111422;-72
2024/02/10 04:22:06;;;;;;;3.60;1.77;;;9.60;99.90;9.60;98038.00;;;;4969532;28;110001;-71
2024/02/10 04:24:32;;;;;;;2.50;1.67;;;9.70;99.90;9.60;98034.00;;;;4971722;28;82800;-71
2024/02/10 04:26:57;;;;;;;1.70;1.60;;;9.70;99.90;9.60;98041.00;;;;4970131;28;84233;-71
2024/02/10 04:29:23;;;;;;;2.53;1.53;;;9.60;99.90;9.60;98039.00;;;;4968045;28;112941;-70
2024/02/10 04:31:49;;;;;;;3.37;1.73;;;9.70;99.90;9.60;98032.00;;;;4968843;28;105634;-71
2024/02/10 04:34:18;;;;;;;2.73;1.87;;;9.70;99.90;9.50;98031.00;;;;4971279;28;82865;-71
2024/02/10 04:36:44;;;;;;;2.73;1.57;;;9.60;99.90;9.50;98024.00;;;;4974817;28;84323;-71
2024/02/10 04:39:10;;;;;;;3.30;1.23;;;9.60;99.90;9.50;98026.00;;;;4968699;28;83587;-70
2024/02/10 04:41:35;;;;;;;2.87;1.40;;;9.50;99.90;9.40;98022.00;;;;4971012;28;83324;-70
2024/02/10 04:44:01;;;;;;;1.67;1.47;;;9.50;99.90;9.40;98028.00;;;;4971617;28;108469;-71
2024/02/10 04:46:29;;;;;;;3.07;1.30;;;9.50;99.90;9.30;98025.00;;;;4971640;28;112892;-71
2024/02/10 04:48:55;;;;;;;2.37;1.77;;;9.40;99.90;9.30;98024.00;;;;4973420;28;82991;-71
2024/02/10 04:51:26;;;;;;;1.53;1.27;;;9.40;99.90;9.20;98016.00;;;;4968753;28;112032;-71
2024/02/10 04:53:52;;;;;;;2.87;1.63;;;9.30;99.90;9.20;98010.00;;;;4973993;28;82623;-71
2024/02/10 04:56:18;;;;;;;2.00;1.60;;;9.30;99.90;9.10;98011.00;;;;4970168;28;82882;-70
2024/02/10 04:58:49;;;;;;;2.13;1.63;;;9.30;99.90;9.00;98002.00;;;;4969500;28;83357;-71
2024/02/10 05:01:19;;;;;;;1.63;1.30;;;9.20;99.90;9.00;98013.00;;;;4977030;28;82932;-70
2024/02/10 05:03:48;;;;;;;2.23;1.80;;;9.10;99.90;8.90;98006.00;;;;4969919;28;82580;-70
2024/02/10 05:06:14;;;;;;;2.50;1.63;;;8.60;99.90;8.90;98013.00;;;;4972407;28;112612;-70
2024/02/10 05:08:40;;;;;;;1.87;1.57;;;9.00;99.90;8.80;98012.00;;;;4928284;27;87026;-70
2024/02/10 05:11:05;;;;;;;5.67;1.77;;;9.00;99.90;8.80;98025.00;;;;4944424;28;82828;-70
2024/02/10 05:13:31;;;;;;;1.87;1.20;;;8.90;99.90;8.80;98022.00;;;;4947857;28;108392;-70
2024/02/10 05:15:57;;;;;;;3.53;1.83;;;8.90;99.90;8.80;98017.00;;;;4944676;28;84703;-70
2024/02/10 05:18:23;;;;;;;4.00;1.80;;;9.00;99.90;8.90;98017.00;;;;4945860;28;113187;-70
2024/02/10 05:20:49;;;;;;;2.60;2.10;;;8.90;99.90;8.90;98027.00;;;;4947302;28;82792;-70
2024/02/10 05:23:16;;;;;;;2.50;1.97;;;9.00;99.90;8.90;98018.00;;;;4942052;28;107710;-70
2024/02/10 05:25:42;;;;;;;1.97;1.83;;;9.00;99.90;8.90;98026.00;;;;4947311;28;82655;-70
2024/02/10 05:28:08;;;;;;;3.90;2.07;;;9.00;99.90;8.90;98025.00;;;;4945123;28;94110;-70
2024/02/10 05:30:33;;;;;;;3.83;2.33;;;9.00;99.90;8.90;98025.00;;;;4946992;28;82685;-70
2024/02/10 05:33:04;;;;;;;2.70;2.10;;;9.00;99.90;9.00;98027.00;;;;4944054;28;108898;-70
2024/02/10 05:35:31;;;;;;;1.50;1.40;;;9.00;99.90;9.00;98029.00;;;;4944828;28;83198;-70
2024/02/10 05:37:59;;;;;;;2.43;1.70;;;9.10;99.90;9.00;98025.00;;;;4941921;28;82802;-70
2024/02/10 05:40:30;;;;;;;2.57;1.47;;;9.10;99.90;9.00;98016.00;;;;4942438;28;83843;-70
2024/02/10 05:43:04;;;;;;;4.63;1.90;;;9.10;99.90;9.00;98012.00;;;;4953547;28;82711;-71
2024/02/10 05:45:31;;;;;;;5.60;2.70;;;9.00;99.90;9.00;98029.00;;;;4944806;28;83007;-70
2024/02/10 05:48:00;;;;;;;4.27;2.63;;;9.10;99.90;9.00;98015.00;;;;4940026;28;83512;-71
2024/02/10 05:50:27;;;;;;;2.60;2.00;;;9.10;99.90;9.10;98025.00;;;;4940473;28;109681;-71
2024/02/10 05:52:53;;;;;;;2.63;1.87;;;9.20;99.90;9.10;98021.00;;;;4939162;28;82858;-71
2024/02/10 05:55:25;;;;;;;2.53;2.10;;;9.20;99.90;9.10;98029.00;;;;4944392;28;103420;-71
2024/02/10 05:58:06;;;;;;;4.60;2.43;;;9.20;99.90;9.10;98033.00;;;;4941129;28;82312;-71
2024/02/10 06:00:32;;;;;;;5.43;2.87;;;9.20;99.90;9.20;98035.00;;;;4939287;28;83027;-71
2024/02/10 06:02:59;;;;;;;3.10;2.27;;;9.30;99.90;9.20;98029.00;;;;4943128;28;82905;-71
2024/02/10 06:05:25;;;;;;;5.87;2.13;;;9.40;99.90;9.20;98036.00;;;;4945315;28;85006;-71
2024/02/10 06:07:52;;;;;;;10.77;6.53;;;9.20;99.90;9.20;98034.00;;;;4940302;28;112274;-70
2024/02/10 06:10:18;;;;;;;8.90;5.70;;;9.30;99.90;9.30;98033.00;;;;4944484;28;82607;-70
2024/02/10 06:12:49;;;;;;;4.47;3.47;;;9.30;99.90;9.30;98033.00;;;;4943545;28;107799;-71
2024/02/10 06:15:17;;;;;;;5.93;4.37;;;9.40;99.90;9.30;98034.00;;;;4944794;28;83548;-71
2024/02/10 06:17:54;;;;;;;4.03;2.67;;;9.40;99.90;9.30;98041.00;;;;4950850;28;86824;-71
2024/02/10 06:20:24;;;;;;;3.10;2.67;;;9.40;99.90;9.30;98040.00;;;;4946790;28;83026;-71
2024/02/10 06:22:54;;;;;;;5.33;2.43;;;9.40;99.90;9.30;98052.00;;;;4950734;28;81800;-71
2024/02/10 06:25:25;;;;;;;4.10;2.53;;;9.50;99.90;9.30;98047.00;;;;4950304;28;93352;-70
2024/02/10 06:27:56;;;;;;;2.40;2.10;;;9.40;99.90;9.30;98039.00;;;;4943233;28;84024;-72
2024/02/10 06:30:27;;;;;;;7.00;2.83;;;9.40;99.90;9.30;98051.00;;;;4944774;28;83796;-70
2024/02/10 06:32:55;;;;;;;5.13;3.20;;;9.40;99.90;9.30;98065.00;;;;4942305;28;82728;-73
2024/02/10 06:35:21;;;;;;;11.17;3.27;;;9.40;99.90;9.30;98051.00;;;;4945191;28;84553;-72
2024/02/10 06:37:49;;;;;;;4.03;2.40;;;9.40;99.90;9.30;98059.00;;;;4945467;28;86234;-72
2024/02/10 06:40:16;;;;;;;3.03;2.60;;;9.40;99.90;9.30;98062.00;;;;4942163;28;82806;-72
2024/02/10 06:42:48;;;;;;;2.53;2.33;;;9.50;99.90;9.30;98065.00;;;;4943237;28;84156;-72
2024/02/10 06:45:15;;;;;;;3.67;2.17;;;9.40;99.90;9.30;98068.00;;;;4947416;28;84021;-73
2024/02/10 06:47:45;;;;;;;7.00;3.03;;;9.40;99.90;9.40;98072.00;;;;4942072;28;82173;-73
2024/02/10 06:50:14;;;;;;;4.17;2.63;;;9.50;99.90;9.40;98073.00;;;;4946547;28;97200;-72
2024/02/10 06:52:44;;;;;;;4.07;2.80;;;9.50;99.90;9.40;98078.00;;;;4939861;28;82805;-72
2024/02/10 06:55:12;;;;;;;7.17;3.43;;;9.50;99.90;9.50;98077.00;;;;4946007;28;83977;-72
2024/02/10 06:57:41;;;;;;;4.20;2.80;;;9.50;99.90;9.50;98080.00;;;;4942666;28;84208;-73
2024/02/10 07:00:16;;;;;;;4.80;2.03;;;9.60;99.90;9.50;98073.00;;;;4948666;28;82720;-70
2024/02/10 07:02:45;;;;;;;3.90;2.97;;;9.60;99.90;9.60;98079.00;;;;4944265;28;82746;-71
2024/02/10 07:05:13;;;;;;;3.80;2.37;;;9.70;99.90;9.60;98075.00;;;;4943300;28;112887;-72
2024/02/10 07:07:41;;;;;;;5.10;2.40;;;9.80;99.90;9.60;98061.00;;;;4948751;28;82781;-70
2024/02/10 07:10:21;;;;;;;4.97;3.37;;;9.70;99.90;9.70;98068.00;;;;4946711;28;83012;-72
2024/02/10 07:12:49;;;;;;;5.87;2.57;;;9.70;99.90;9.70;98071.00;;;;4948624;28;82201;-73
2024/02/10 07:15:18;;;;;;;6.03;3.10;;;9.80;99.90;9.70;98068.00;;;;4945328;28;83266;-72
2024/02/10 07:17:49;;;;;;;4.73;3.10;;;9.80;99.90;9.70;98068.00;;;;4945797;28;83300;-71
2024/02/10 07:20:20;;;;;;;4.37;2.27;;;9.80;99.90;9.80;98055.00;;;;4945475;28;83689;-71
2024/02/10 07:22:49;;;;;;;5.57;2.33;;;9.80;99.90;9.80;98071.00;;;;4943177;28;83111;-71
2024/02/10 07:25:16;;;;;;;4.37;3.00;;;9.80;99.90;9.80;98068.00;;;;4942276;28;82978;-70
2024/02/10 07:27:46;;;;;;;3.43;1.90;;;9.90;99.90;9.80;98062.00;;;;4943166;28;83072;-70
2024/02/10 07:30:17;;;;;;;6.13;2.97;;;9.90;99.90;9.80;98067.00;;;;4942057;28;83677;-71
2024/02/10 07:32:44;;;;;;;6.07;2.63;;;9.90;99.90;9.90;98075.00;;;;4944414;28;82808;-71
2024/02/10 07:35:12;;;;;;;4.57;2.50;;;9.90;99.90;9.90;98072.00;;;;4949619;28;83785;-71
2024/02/10 07:37:38;;;;;;;3.00;2.57;;;10.00;99.90;9.90;98081.00;;;;4946212;28;83022;-70
2024/02/10 07:40:08;;;;;;;4.43;3.77;;;10.00;99.90;10.00;98075.00;;;;4947480;28;82732;-71
2024/02/10 07:42:34;;;;;;;3.97;2.43;;;10.10;99.90;10.00;98074.00;;;;4943190;28;83268;-71
2024/02/10 07:45:01;;;;;;;5.57;3.20;;;10.00;99.90;10.10;98083.00;;;;4942092;28;84854;-70
2024/02/10 07:47:26;;;;;;;3.87;2.33;;;10.10;99.90;10.10;98098.00;;;;4944276;28;105179;-71
2024/02/10 07:49:53;;;;;;;5.43;2.73;;;10.10;99.90;10.20;98103.00;;;;4949920;28;109296;-70
2024/02/10 07:52:22;;;;;;;6.50;3.90;;;10.30;99.90;10.40;98099.00;;;;4946261;28;82713;-70
2024/02/10 07:54:49;;;;;;;7.97;5.27;;;10.40;99.90;10.70;98112.00;;;;4944196;28;112123;-71
2024/02/10 07:57:19;;;;;;;16.97;6.87;;;10.60;99.90;11.00;98104.00;;;;4942896;28;82865;-70
2024/02/10 07:59:50;;;;;;;7.53;3.57;;;10.90;99.90;11.20;98113.00;;;;4932433;28;82951;-71
2024/02/10 08:02:21;;;;;;;2.90;1.93;;;11.20;99.90;11.50;98111.00;;;;4945213;28;82150;-71
2024/02/10 08:04:51;;;;;;;4.73;3.70;;;11.40;99.90;11.60;98097.00;;;;4940114;28;85283;-71
2024/02/10 08:07:21;;;;;;;6.83;3.37;;;11.60;99.90;11.80;98107.00;;;;4939385;28;82985;-71
2024/02/10 08:09:47;;;;;;;3.63;2.57;;;11.80;99.90;12.00;98119.00;;;;4940729;28;83837;-69
2024/02/10 08:12:23;;;;;;;2.47;1.90;;;12.00;99.90;12.20;98120.00;;;;4942609;28;82809;-71
2024/02/10 08:14:53;;;;;;;3.37;2.77;;;12.10;99.90;12.10;98145.00;;;;4943675;28;83029;-71
2024/02/10 08:17:26;;;;;;;8.77;4.27;;;12.20;99.90;12.10;98145.00;;;;4942540;28;84529;-70
2024/02/10 08:19:59;;;;;;;8.63;3.90;;;12.20;99.90;12.20;98140.00;;;;4945631;28;82876;-71
2024/02/10 08:22:34;;;;;;;3.07;2.10;;;12.20;99.90;12.30;98136.00;;;;4941458;28;82899;-70
2024/02/10 08:25:02;;;;;;;5.63;3.23;;;12.40;99.90;12.50;98129.00;;;;4945552;28;82734;-70
2024/02/10 08:27:31;;;;;;;4.03;2.83;;;12.50;99.90;12.60;98121.00;;;;4943619;28;82206;-72
2024/02/10 08:29:58;;;;;;;4.23;2.37;;;12.60;99.90;12.80;98139.00;;;;4942757;28;83031;-70
2024/02/10 08:32:26;;;;;;;4.17;2.43;;;12.80;99.90;13.00;98127.00;;;;4946365;28;82908;-71
2024/02/10 08:34:52;;;;;;;2.93;1.80;;;12.90;99.90;13.10;98137.00;;;;4947834;28;84028;-71
2024/02/10 08:37:19;;;;;;;3.93;2.30;;;13.10;99.90;13.30;98137.00;;;;4946615;28;83013;-71
2024/02/10 08:39:45;;;;;;;4.43;2.30;;;13.30;99.90;13.40;98145.00;;;;4943670;28;83152;-71
2024/02/10 08:42:15;;;;;;;3.30;2.38;;;13.40;99.90;13.40;98146.00;;;;4944944;28;84383;-71
2024/02/10 08:44:45;;;;;;;6.20;3.97;;;13.40;99.90;13.30;98140.00;;;;4939706;28;100409;-72
2024/02/10 08:47:12;;;;;;;37.63;20.08;;;13.40;99.90;13.20;98145.00;;;;4942756;28;83457;-70
2024/02/10 08:49:40;;;;;;;26.63;18.60;;;13.30;99.90;13.00;98136.00;;;;4943535;28;83668;-72
2024/02/10 08:52:15;;;;;;;15.60;13.57;;;13.10;99.90;12.90;98138.00;;;;4944371;28;85559;-70
2024/02/10 08:54:42;;;;;;;26.08;19.38;;;13.00;99.90;12.80;98148.00;;;;4945278;28;84198;-72
2024/02/10 08:57:09;;;;;;;10.52;7.00;;;12.90;99.90;12.70;98148.00;;;;4925260;28;86188;-71
2024/02/10 08:59:43;;;;;;;3.65;3.28;;;12.80;99.90;12.70;98142.00;;;;4943346;28;84363;-71
2024/02/10 09:02:09;;;;;;;4.38;3.40;;;12.80;99.90;12.80;98136.00;;;;4940669;28;82671;-72
2024/02/10 09:04:38;;;;;;;6.40;2.15;;;12.70;99.90;12.80;98148.00;;;;4944228;28;97696;-71
2024/02/10 09:07:04;;;;;;;3.17;2.33;;;12.80;99.90;13.00;98141.00;;;;4948972;28;83138;-72
2024/02/10 09:09:30;;;;;;;2.08;1.88;;;12.90;99.90;13.20;98138.00;;;;4945054;28;98368;-72
2024/02/10 09:11:56;;;;;;;2.65;1.65;;;13.10;99.90;13.30;98149.00;;;;4942186;28;108607;-72
2024/02/10 09:14:22;;;;;;;3.47;2.08;;;13.30;99.90;13.50;98143.00;;;;4942025;28;84877;-72
2024/02/10 09:16:48;;;;;;;7.85;4.22;;;13.40;99.90;13.60;98145.00;;;;4943049;28;87800;-73
2024/02/10 09:19:19;;;;;;;8.93;7.47;;;13.50;99.90;13.70;98157.00;;;;4942870;28;109869;-73
2024/02/10 09:21:54;;;;;;;4.18;2.35;;;13.60;99.90;13.90;98155.00;;;;4941014;28;82909;-73
2024/02/10 09:24:22;;;;;;;7.13;6.30;;;13.80;99.90;14.30;98154.00;;;;4943981;28;83783;-73
2024/02/10 09:26:49;;;;;;;1.98;1.88;;;14.10;99.90;14.60;98158.00;;;;4944515;28;84286;-70
2024/02/10 09:29:14;;;;;;;3.00;1.73;;;14.50;99.90;14.90;98158.00;;;;4944797;28;82995;-72
2024/02/10 09:31:49;;;;;;;2.65;1.88;;;14.70;99.90;15.10;98155.00;;;;4941500;28;88589;-73
2024/02/10 09:34:20;;;;;;;2.30;1.30;;;15.00;99.90;15.40;98157.00;;;;4940926;28;82810;-70
2024/02/10 09:36:47;;;;;;;2.60;1.67;;;15.20;99.90;15.60;98165.00;;;;4943280;28;82876;-71
2024/02/10 09:39:13;;;;;;;2.38;1.75;;;15.50;99.90;15.80;98156.00;;;;4944211;28;82754;-71
2024/02/10 09:41:42;;;;;;;3.13;1.83;;;15.70;99.90;16.00;98167.00;;;;4945111;28;81914;-71
2024/02/10 09:44:10;;;;;;;1.52;1.27;;;15.90;99.90;16.10;98169.00;;;;4942874;28;112601;-70
2024/02/10 09:46:36;;;;;;;1.45;1.33;;;16.10;99.90;16.40;98164.00;;;;4947474;28;82798;-71
2024/02/10 09:49:07;;;;;;;2.20;1.65;;;16.30;99.90;16.60;98167.00;;;;4950886;28;83835;-72
2024/02/10 09:51:42;;;;;;;1.13;1.00;;;16.50;99.90;16.80;98164.00;;;;4952761;28;82733;-70
2024/02/10 09:54:14;;;;;;;1.80;1.42;;;16.70;99.90;17.00;98164.00;;;;4945755;28;83893;-71
2024/02/10 09:56:40;;;;;;;1.05;0.90;;;16.90;99.90;17.30;98161.00;;;;4947195;28;83320;-70
2024/02/10 09:59:17;;;;;;;1.77;1.38;;;17.10;99.90;17.60;98156.00;;;;4951954;28;86599;-72
2024/02/10 10:01:43;;;;;;;1.65;1.00;;;17.40;99.90;17.70;98159.00;;;;4939263;28;82829;-70
2024/02/10 10:04:12;;;;;;;3.25;1.48;;;17.60;99.90;17.90;98161.00;;;;4946406;28;82801;-70
2024/02/10 10:06:43;;;;;;;1.33;0.93;;;17.90;99.90;18.00;98153.00;;;;4947833;28;82340;-71
2024/02/10 10:09:09;;;;;;;1.33;1.17;;;17.90;99.90;18.20;98157.00;;;;4953747;28;82739;-71
2024/02/10 10:11:43;;;;;;;1.58;1.13;;;18.00;99.90;18.20;98163.00;;;;4948358;28;83181;-70
2024/02/10 10:14:09;;;;;;;3.28;1.45;;;18.10;99.90;18.10;98152.00;;;;4942216;28;86666;-71
2024/02/10 10:16:35;;;;;;;2.40;1.48;;;18.00;99.90;18.20;98162.00;;;;4943386;28;113072;-71
2024/02/10 10:19:01;;;;;;;3.13;1.20;;;18.10;99.90;18.20;98155.00;;;;4947627;28;94735;-71
2024/02/10 10:21:30;;;;;;;1.48;1.38;;;17.90;99.90;18.20;98162.00;;;;4944453;28;84316;-70
2024/02/10 10:24:00;;;;;;;3.10;1.63;;;18.10;99.90;18.10;98163.00;;;;4945830;28;83316;-71
2024/02/10 10:26:26;;;;;;;4.50;1.83;;;18.10;98.50;17.90;98173.00;;;;4944827;28;111291;-71
2024/02/10 10:28:52;;;;;;;1.45;1.35;;;17.90;98.20;17.70;98169.00;;;;4942163;28;82857;-70
2024/02/10 10:31:18;;;;;;;1.88;1.35;;;17.70;98.10;17.70;98163.00;;;;4940963;28;108464;-70
2024/02/10 10:33:48;;;;;;;4.72;1.67;;;17.60;98.80;17.70;98157.00;;;;4947523;28;83188;-71
2024/02/10 10:36:16;;;;;;;1.83;1.35;;;17.60;98.70;17.70;98161.00;;;;4950784;28;82855;-70
2024/02/10 10:38:44;;;;;;;3.67;1.77;;;17.60;99.20;17.90;98152.00;;;;4944830;28;83726;-73
2024/02/10 10:41:12;;;;;;;2.20;1.48;;;17.70;99.70;18.10;98157.00;;;;4946908;28;82631;-71
2024/02/10 10:43:43;;;;;;;4.90;1.70;;;17.80;99.90;18.20;98161.00;;;;4947207;28;97316;-70
2024/02/10 10:46:16;;;;;;;2.03;1.33;;;18.10;99.10;18.40;98157.00;;;;4947583;28;83245;-70
2024/02/10 10:48:44;;;;;;;2.17;1.88;;;18.20;99.40;18.70;98156.00;;;;4946970;28;82782;-70
2024/02/10 10:51:11;;;;;;;3.63;1.80;;;18.40;98.90;18.80;98156.00;;;;4948365;28;82615;-70
2024/02/10 10:53:40;;;;;;;1.90;1.55;;;18.50;97.50;18.80;98150.00;;;;4945738;28;100527;-72
2024/02/10 10:56:09;;;;;;;3.33;1.98;;;18.60;96.80;18.80;98146.00;;;;4944499;28;85194;-72
2024/02/10 10:58:46;;;;;;;2.42;1.77;;;18.60;97.10;19.00;98152.00;;;;4946372;28;83042;-70
2024/02/10 11:01:15;;;;;;;2.03;1.60;;;18.80;96.70;19.00;98143.00;;;;4947699;28;95651;-72